KPWK/PWK METAR and TAF weather

Enter ICAO airport designator
Station Type Date Time Source
KPWK METAR 2019/08/22 08:52 UTC NOAA

KPWK 220852Z AUTO 36004KT 10SM CLR 19/14 A2998 RMK AO2 SLP149 T01940144 55004


Station Type Date Time Source
KPWK Decoded METAR 2019/08/22 08:52 UTC NOAA

Station name not available
Aug 22, 2019 - 04:52 AM EDT / 2019.08.22 0852 UTC
Wind: from the N (360 degrees) at 5 MPH (4 KT):0
Visibility: 10 mile(s):0
Sky conditions: clear
Temperature: 66.9 F (19.4 C)
Dew Point: 57.9 F (14.4 C)
Relative Humidity: 72%
Pressure (altimeter): 29.98 in. Hg (1015 hPa)
Pressure tendency: 0.01 inches (0.4 hPa) lower than three hours ago
ob: KPWK 220852Z AUTO 36004KT 10SM CLR 19/14 A2998 RMK AO2 SLP149 T01940144 55004
cycle: 9

Station Type Date Time Source
KPWK TAF UTC NOAA

Error!

Example: see airport list